Terminal Aerodrome Forecast
Issued by NWS

Home | Current Version | Previous Version | Text Only | Print | Product List | Glossary On
Versions: 1 2 3 4 5 6 7 8 9 10 11 12 13 14 15 16 17 18 19 20
000
FTUS45 KREV 222321
TAFTRK
TAF
KTRK 222321Z 2300/2324 22004KT P6SM SCT040 SCT060
     FM230900 00000KT 1/2SM FZFG BKN002
     FM231800 VRB03KT P6SM SCT200=

USA.gov is the U.S. government's official web portal to all federal, state and local government web resources and services.